BAW9VA EGKK-TLPL
Flight info
| Callsign | BAW9VA |
|---|---|
| Flight time | N/A |
| Altitude | 34000 |
| Route | NOVMA L620 SAM N19 ADKIK DCT JOZMA DCT GAPLI/M082F340 DCT OMOKO DCT 48N015W 47N020W 45N030W 39N040W 35N045W 31N050W 25N055W DCT CITRS/N0487F340 DCT 16N060W DCT FOF UA324 BNE |
| Aircraft | B772/H-SDE2E3FGHIJ5LORVWXY/LB1D1 |
Departure
| Time | 2026-04-19 06:41 |
|---|---|
| Airport | London Gatwick Airport (EGKK) |
Arrival
| Time | N/A |
|---|---|
| Airport | Hewanorra International Airport (TLPL) |
| Time | Latitude | Longitude | Altitude | Speed | Heading |
|---|---|---|---|---|---|
| 2026-04-19 05:56 | 51.15566 | -0.17101 | 216 ft | 0 kts | 168° |
| 2026-04-19 06:27 | 51.15588 | -0.17109 | 210 ft | 4 kts | 168° |
| 2026-04-19 06:28 | 51.15609 | -0.17116 | 208 ft | 4 kts | 178° |
| 2026-04-19 06:28 | 51.15631 | -0.17107 | 220 ft | 4 kts | 236° |
| 2026-04-19 06:28 | 51.15639 | -0.17070 | 208 ft | 4 kts | 258° |
| 2026-04-19 06:28 | 51.15642 | -0.17044 | 212 ft | 0 kts | 258° |
| 2026-04-19 06:33 | 51.15641 | -0.17057 | 208 ft | 6 kts | 258° |
| 2026-04-19 06:34 | 51.15625 | -0.17173 | 209 ft | 18 kts | 257° |
| 2026-04-19 06:34 | 51.15623 | -0.17186 | 217 ft | 19 kts | 257° |
| 2026-04-19 06:34 | 51.15582 | -0.17309 | 208 ft | 10 kts | 202° |
| 2026-04-19 06:34 | 51.15512 | -0.17306 | 214 ft | 10 kts | 176° |
| 2026-04-19 06:35 | 51.15361 | -0.17250 | 208 ft | 0 kts | 169° |
| 2026-04-19 06:36 | 51.15337 | -0.17240 | 216 ft | 11 kts | 164° |
| 2026-04-19 06:36 | 51.15265 | -0.17192 | 219 ft | 10 kts | 132° |
| 2026-04-19 06:36 | 51.15260 | -0.17144 | 218 ft | 4 kts | 83° |
| 2026-04-19 06:37 | 51.15263 | -0.17111 | 215 ft | 8 kts | 79° |
| 2026-04-19 06:37 | 51.15278 | -0.16999 | 213 ft | 9 kts | 78° |
| 2026-04-19 06:37 | 51.15290 | -0.16914 | 208 ft | 5 kts | 79° |
| 2026-04-19 06:38 | 51.15295 | -0.16863 | 214 ft | 5 kts | 80° |
| 2026-04-19 06:38 | 51.15303 | -0.16812 | 218 ft | 5 kts | 75° |
| 2026-04-19 06:38 | 51.15311 | -0.16761 | 218 ft | 5 kts | 76° |
| 2026-04-19 06:38 | 51.15309 | -0.16709 | 218 ft | 5 kts | 108° |
| 2026-04-19 06:39 | 51.15286 | -0.16673 | 219 ft | 5 kts | 152° |
| 2026-04-19 06:39 | 51.15254 | -0.16656 | 217 ft | 5 kts | 164° |
| 2026-04-19 06:39 | 51.15217 | -0.16641 | 212 ft | 11 kts | 166° |
| 2026-04-19 06:39 | 51.15133 | -0.16727 | 207 ft | 24 kts | 257° |
| 2026-04-19 06:40 | 51.15063 | -0.17230 | 208 ft | 77 kts | 258° |
| 2026-04-19 06:40 | 51.14905 | -0.18387 | 213 ft | 133 kts | 258° |
| 2026-04-19 06:40 | 51.14671 | -0.20051 | 251 ft | 170 kts | 258° |
| 2026-04-19 06:40 | 51.14380 | -0.21932 | 674 ft | 178 kts | 257° |
| 2026-04-19 06:41 | 51.14065 | -0.23865 | 1277 ft | 182 kts | 258° |
| 2026-04-19 06:41 | 51.13785 | -0.25844 | 1982 ft | 185 kts | 261° |
| 2026-04-19 06:41 | 51.13544 | -0.27956 | 2213 ft | 207 kts | 263° |
| 2026-04-19 06:41 | 51.13271 | -0.30329 | 2425 ft | 227 kts | 262° |
| 2026-04-19 06:42 | 51.12951 | -0.32911 | 2559 ft | 251 kts | 259° |
| 2026-04-19 06:42 | 51.12589 | -0.35701 | 3005 ft | 257 kts | 261° |
| 2026-04-19 06:42 | 51.12222 | -0.38461 | 3743 ft | 256 kts | 261° |
| 2026-04-19 06:42 | 51.11875 | -0.41081 | 4026 ft | 261 kts | 261° |
| 2026-04-19 06:43 | 51.11497 | -0.43917 | 4002 ft | 261 kts | 259° |
| 2026-04-19 06:43 | 51.10741 | -0.46535 | 3995 ft | 268 kts | 230° |
| 2026-04-19 06:43 | 51.09389 | -0.48607 | 4020 ft | 271 kts | 231° |
| 2026-04-19 06:43 | 51.08551 | -0.51210 | 4018 ft | 263 kts | 260° |
| 2026-04-19 06:44 | 51.08065 | -0.54028 | 3999 ft | 269 kts | 251° |
| 2026-04-19 06:44 | 51.07275 | -0.56756 | 4030 ft | 272 kts | 246° |
| 2026-04-19 06:44 | 51.06427 | -0.59378 | 3997 ft | 267 kts | 245° |
| 2026-04-19 06:44 | 51.05580 | -0.61983 | 4027 ft | 265 kts | 246° |
| 2026-04-19 06:45 | 51.05314 | -0.62879 | 4019 ft | 264 kts | 251° |
| 2026-04-19 06:45 | 51.04580 | -0.67999 | 4032 ft | 266 kts | 263° |
| 2026-04-19 06:45 | 51.04475 | -0.68944 | 4033 ft | 267 kts | 263° |
| 2026-04-19 06:45 | 51.03886 | -0.73793 | 4023 ft | 264 kts | 262° |
| 2026-04-19 06:46 | 51.03522 | -0.76638 | 4077 ft | 263 kts | 261° |
| 2026-04-19 06:46 | 51.03142 | -0.79496 | 4634 ft | 265 kts | 261° |
| 2026-04-19 06:46 | 51.02761 | -0.82360 | 5306 ft | 265 kts | 261° |
| 2026-04-19 06:46 | 51.02381 | -0.85197 | 5930 ft | 266 kts | 260° |
| 2026-04-19 06:47 | 51.01992 | -0.88081 | 6557 ft | 267 kts | 260° |
| 2026-04-19 06:47 | 51.01601 | -0.90977 | 7122 ft | 269 kts | 260° |
| 2026-04-19 06:47 | 51.01182 | -0.93886 | 7660 ft | 272 kts | 259° |
| 2026-04-19 06:47 | 51.00743 | -0.96810 | 8204 ft | 273 kts | 258° |
| 2026-04-19 06:48 | 51.00308 | -0.99753 | 8729 ft | 274 kts | 259° |
| 2026-04-19 06:48 | 50.99896 | -1.02726 | 9213 ft | 277 kts | 260° |
| 2026-04-19 06:48 | 50.99485 | -1.05720 | 9733 ft | 277 kts | 260° |
| 2026-04-19 06:48 | 50.99075 | -1.08708 | 10259 ft | 277 kts | 260° |
| 2026-04-19 06:49 | 50.98662 | -1.11719 | 10624 ft | 284 kts | 260° |
| 2026-04-19 06:49 | 50.98229 | -1.14884 | 10748 ft | 300 kts | 260° |
| 2026-04-19 06:49 | 50.97773 | -1.18200 | 10884 ft | 316 kts | 260° |
| 2026-04-19 06:49 | 50.97287 | -1.21704 | 11058 ft | 333 kts | 260° |
| 2026-04-19 06:50 | 50.96780 | -1.25353 | 11486 ft | 343 kts | 260° |
| 2026-04-19 06:50 | 50.96261 | -1.29072 | 12100 ft | 348 kts | 260° |
| 2026-04-19 06:50 | 50.95741 | -1.32777 | 12880 ft | 348 kts | 260° |
| 2026-04-19 06:50 | 50.95221 | -1.36549 | 13594 ft | 352 kts | 261° |
| 2026-04-19 06:51 | 50.94726 | -1.40412 | 14309 ft | 355 kts | 261° |
| 2026-04-19 06:51 | 50.94249 | -1.44219 | 15000 ft | 357 kts | 261° |
| 2026-04-19 06:51 | 50.93763 | -1.48088 | 15695 ft | 359 kts | 261° |
| 2026-04-19 06:51 | 50.93268 | -1.51988 | 16330 ft | 362 kts | 261° |
| 2026-04-19 06:52 | 50.92768 | -1.55910 | 16952 ft | 364 kts | 261° |
| 2026-04-19 06:52 | 50.92261 | -1.59863 | 17553 ft | 366 kts | 261° |
| 2026-04-19 06:52 | 50.91747 | -1.63842 | 18146 ft | 369 kts | 261° |
| 2026-04-19 06:52 | 50.91233 | -1.67827 | 18731 ft | 370 kts | 261° |
| 2026-04-19 06:53 | 50.90714 | -1.71840 | 19250 ft | 373 kts | 261° |
| 2026-04-19 06:53 | 50.90188 | -1.75885 | 19748 ft | 376 kts | 261° |
| 2026-04-19 06:53 | 50.89662 | -1.79907 | 20246 ft | 379 kts | 261° |
| 2026-04-19 06:53 | 50.89125 | -1.84017 | 20719 ft | 381 kts | 261° |
| 2026-04-19 06:54 | 50.88583 | -1.88144 | 21164 ft | 384 kts | 261° |
| 2026-04-19 06:54 | 50.88037 | -1.92311 | 21614 ft | 387 kts | 261° |
| 2026-04-19 06:54 | 50.87486 | -1.96497 | 22032 ft | 390 kts | 261° |
| 2026-04-19 06:54 | 50.86928 | -2.00709 | 22460 ft | 392 kts | 261° |
| 2026-04-19 06:55 | 50.86366 | -2.04958 | 22867 ft | 395 kts | 261° |
| 2026-04-19 06:55 | 50.85799 | -2.09241 | 23286 ft | 398 kts | 261° |
| 2026-04-19 06:55 | 50.85424 | -2.12074 | 23569 ft | 399 kts | 261° |
| 2026-04-19 06:55 | 50.84850 | -2.16382 | 23982 ft | 401 kts | 262° |
| 2026-04-19 06:56 | 50.84085 | -2.22130 | 24484 ft | 404 kts | 261° |
| 2026-04-19 06:56 | 50.83692 | -2.25074 | 24742 ft | 406 kts | 261° |
| 2026-04-19 06:56 | 50.82913 | -2.30878 | 25285 ft | 408 kts | 261° |
| 2026-04-19 06:56 | 50.82320 | -2.35281 | 25658 ft | 410 kts | 261° |
| 2026-04-19 06:57 | 50.81917 | -2.38268 | 25895 ft | 412 kts | 261° |
| 2026-04-19 06:57 | 50.81324 | -2.42657 | 26241 ft | 414 kts | 261° |
| 2026-04-19 06:57 | 50.80720 | -2.47116 | 26564 ft | 417 kts | 261° |
| 2026-04-19 06:57 | 50.80109 | -2.51613 | 26913 ft | 419 kts | 261° |
| 2026-04-19 06:58 | 50.79499 | -2.56129 | 27267 ft | 420 kts | 262° |
| 2026-04-19 06:58 | 50.78940 | -2.60675 | 27615 ft | 422 kts | 263° |
| 2026-04-19 06:58 | 50.78413 | -2.65250 | 27945 ft | 423 kts | 263° |
| 2026-04-19 06:58 | 50.77893 | -2.69830 | 28266 ft | 425 kts | 263° |
| 2026-04-19 06:59 | 50.77370 | -2.74443 | 28571 ft | 427 kts | 263° |
| 2026-04-19 06:59 | 50.76838 | -2.79071 | 28887 ft | 429 kts | 263° |
| 2026-04-19 06:59 | 50.76300 | -2.83712 | 29199 ft | 430 kts | 263° |
| 2026-04-19 06:59 | 50.75762 | -2.88305 | 29483 ft | 432 kts | 263° |
| 2026-04-19 07:00 | 50.75207 | -2.92984 | 29760 ft | 434 kts | 263° |
| 2026-04-19 07:00 | 50.74648 | -2.97677 | 30016 ft | 436 kts | 263° |
| 2026-04-19 07:00 | 50.74085 | -3.02391 | 30239 ft | 438 kts | 262° |
| 2026-04-19 07:00 | 50.73517 | -3.07123 | 30488 ft | 439 kts | 263° |
| 2026-04-19 07:01 | 50.72945 | -3.11873 | 30694 ft | 441 kts | 263° |
| 2026-04-19 07:01 | 50.72368 | -3.16644 | 30880 ft | 443 kts | 262° |
| 2026-04-19 07:01 | 50.71788 | -3.21433 | 31092 ft | 445 kts | 262° |
| 2026-04-19 07:01 | 50.71203 | -3.26233 | 31275 ft | 447 kts | 262° |
| 2026-04-19 07:02 | 50.70615 | -3.31041 | 31488 ft | 448 kts | 262° |
| 2026-04-19 07:02 | 50.70024 | -3.35871 | 31759 ft | 447 kts | 262° |
| 2026-04-19 07:02 | 50.69432 | -3.40687 | 32021 ft | 447 kts | 262° |
| 2026-04-19 07:02 | 50.68838 | -3.45503 | 32278 ft | 447 kts | 262° |
| 2026-04-19 07:03 | 50.68244 | -3.50297 | 32549 ft | 446 kts | 262° |
| 2026-04-19 07:03 | 50.67647 | -3.55094 | 32798 ft | 446 kts | 262° |
| 2026-04-19 07:03 | 50.67056 | -3.59841 | 33028 ft | 446 kts | 262° |
| 2026-04-19 07:03 | 50.66456 | -3.64648 | 33263 ft | 447 kts | 262° |
| 2026-04-19 07:04 | 50.65854 | -3.69444 | 33499 ft | 446 kts | 262° |
| 2026-04-19 07:04 | 50.65249 | -3.74244 | 33749 ft | 446 kts | 262° |
| 2026-04-19 07:04 | 50.64641 | -3.79048 | 34005 ft | 446 kts | 262° |
| 2026-04-19 07:04 | 50.64036 | -3.83829 | 34230 ft | 445 kts | 262° |
| 2026-04-19 07:05 | 50.63018 | -3.91825 | 34310 ft | 450 kts | 262° |
| 2026-04-19 07:05 | 50.61525 | -4.03100 | 34368 ft | 448 kts | 261° |
| 2026-04-19 07:06 | 50.60203 | -4.12685 | 34357 ft | 447 kts | 261° |
| 2026-04-19 07:06 | 50.58879 | -4.22243 | 34360 ft | 446 kts | 261° |
| 2026-04-19 07:07 | 50.57565 | -4.31714 | 34353 ft | 446 kts | 261° |
| 2026-04-19 07:07 | 50.56238 | -4.41258 | 34362 ft | 446 kts | 261° |
| 2026-04-19 07:08 | 50.54899 | -4.50823 | 34356 ft | 448 kts | 261° |
| 2026-04-19 07:08 | 50.53551 | -4.60386 | 34351 ft | 448 kts | 261° |
| 2026-04-19 07:09 | 50.52192 | -4.69959 | 34351 ft | 449 kts | 261° |
| 2026-04-19 07:09 | 50.50844 | -4.79411 | 34350 ft | 449 kts | 261° |
| 2026-04-19 07:10 | 50.49467 | -4.88992 | 34348 ft | 450 kts | 261° |
| 2026-04-19 07:10 | 50.48082 | -4.98570 | 34351 ft | 450 kts | 261° |
| 2026-04-19 07:11 | 50.46688 | -5.08147 | 34348 ft | 449 kts | 261° |
| 2026-04-19 07:11 | 50.45288 | -5.17705 | 34560 ft | 453 kts | 261° |
| 2026-04-19 07:12 | 50.44580 | -5.22512 | 34828 ft | 451 kts | 260° |
| 2026-04-19 07:12 | 50.43872 | -5.27311 | 35102 ft | 450 kts | 260° |
| 2026-04-19 07:12 | 50.42411 | -5.37162 | 35431 ft | 453 kts | 260° |
| 2026-04-19 07:13 | 50.41696 | -5.41962 | 35634 ft | 452 kts | 260° |
| 2026-04-19 07:13 | 50.40978 | -5.46764 | 35857 ft | 451 kts | 260° |
| 2026-04-19 07:13 | 50.40260 | -5.51554 | 36083 ft | 451 kts | 260° |
| 2026-04-19 07:13 | 50.39541 | -5.56334 | 36265 ft | 452 kts | 260° |
| 2026-04-19 07:14 | 50.38817 | -5.61133 | 36415 ft | 452 kts | 260° |
| 2026-04-19 07:14 | 50.38092 | -5.65928 | 36578 ft | 453 kts | 259° |
| 2026-04-19 07:14 | 50.37364 | -5.70727 | 36782 ft | 452 kts | 259° |
| 2026-04-19 07:14 | 50.36639 | -5.75485 | 37203 ft | 445 kts | 259° |
| 2026-04-19 07:15 | 50.35922 | -5.80173 | 37531 ft | 441 kts | 259° |
| 2026-04-19 07:15 | 50.35206 | -5.84853 | 37621 ft | 443 kts | 259° |
| 2026-04-19 07:15 | 50.33760 | -5.94274 | 37788 ft | 445 kts | 259° |
| 2026-04-19 07:16 | 50.33040 | -5.98935 | 37914 ft | 446 kts | 259° |
| 2026-04-19 07:16 | 50.32310 | -6.03650 | 38057 ft | 445 kts | 259° |
| 2026-04-19 07:16 | 50.31578 | -6.08365 | 38177 ft | 445 kts | 259° |
| 2026-04-19 07:17 | 50.30358 | -6.16190 | 38287 ft | 446 kts | 259° |
| 2026-04-19 07:17 | 50.28524 | -6.27870 | 38344 ft | 448 kts | 259° |
| 2026-04-19 07:18 | 50.27029 | -6.37354 | 38352 ft | 449 kts | 259° |
| 2026-04-19 07:18 | 50.25524 | -6.46853 | 38350 ft | 450 kts | 259° |
| 2026-04-19 07:19 | 50.24007 | -6.56341 | 38346 ft | 450 kts | 259° |
| 2026-04-19 07:19 | 50.22740 | -6.64220 | 38346 ft | 450 kts | 258° |
| 2026-04-19 07:20 | 50.21212 | -6.73690 | 38347 ft | 449 kts | 258° |
| 2026-04-19 07:20 | 50.19431 | -6.84679 | 38348 ft | 448 kts | 258° |
| 2026-04-19 07:21 | 50.18138 | -6.92572 | 38350 ft | 448 kts | 258° |
| 2026-04-19 07:21 | 50.16596 | -7.01976 | 38348 ft | 447 kts | 258° |